TAF Text Data
IDs:
Format:
Raw Decoded Include METAR

Data at: 1514 UTC 16 Feb 2019

METAR for:KLBE (Latrobe/Palmer Rgnl, PA, US)
Text:KLBE 161453Z 02010KT 10SM OVC028 M04/M09 A3001
Temperature: -4.0°C ( 25°F)
Dewpoint: -9.0°C ( 16°F) [RH = 68%]
Pressure (altimeter):30.01 inches Hg (1016.3 mb)
Winds:from the NNE (20 degrees) at 12 MPH (10 knots; 5.1 m/s)
Visibility:10 or more sm (16+ km)
Ceiling:2800 feet AGL
Clouds: overcast cloud deck at 2800 feet AGL

TAF for:KLBE (Latrobe/Palmer Rgnl, PA, US) issued at 1501 UTC 16 Feb 2019
Text:KLBE 161501Z 1615/1712 02010KT P6SM BKN025
Forecast period:1500 to 1900 UTC 16 February 2019
Forecast type:FROM: standard forecast or significant change
Winds:from the NNE (20 degrees) at 12 MPH (10 knots; 5.1 m/s)
Visibility:6 or more sm (10+ km)
Ceiling:2500 feet AGL
Clouds: broken clouds at 2500 feet AGL
Text:FM161900 36005KT P6SM SKC
Forecast period:1900 UTC 16 February 2019 to 1200 UTC 17 February 2019
Forecast type:FROM: standard forecast or significant change
Winds:from the N (360 degrees) at 6 MPH (5 knots; 2.6 m/s)
Visibility:6 or more sm (10+ km)
Ceiling:at least 12,000 feet AGL
Clouds:clear skies